Latest Weather Observations for Bellambi

IDN60801

Issued at 9:32 pm EDT Saturday 10 December 2016 (issued every 30 minutes, with the page automatically refreshed every 10 minutes)

About weather observations | Map of weather stations | Latest weather observations for NSW | Other Formats
Station Details ID: 068228 Name: BELLAMBI AWS Lat: -34.37 Lon: 150.93 Height: 10.0 m
Data from the previous 72 hours. | See also: Recent months at Bellambi
Date/Time
EDT
Temp
°C
App
Temp
°C
Dew
Point
°C
Rel
Hum
%
Delta-T
°C
Wind Press
QNH
hPa
Press
MSL
hPa
Rain since
9am
mm
Dir  Spd
km/h
Gust
km/h
Spd
kts
Gust
kts
10/09:30pm 20.1 17.1 14.7 71 3.2 NE 24 33 13 18 - - 0.0
10/09:00pm 20.1 17.0 14.5 70 3.3 NNE 24 28 13 15 - - 0.0
10/08:30pm 20.0 16.5 14.6 71 3.1 NE 26 32 14 17 - - 0.0
10/08:00pm 20.0 16.5 14.6 71 3.1 NE 26 28 14 15 - - 0.0
10/07:30pm 20.0 16.5 14.4 70 3.3 NE 26 30 14 16 - - 0.0
10/07:00pm 20.2 16.7 14.6 70 3.3 NE 26 32 14 17 - - 0.0
10/06:30pm 20.3 17.3 14.7 70 3.3 ENE 24 30 13 16 - - 0.0
10/06:00pm 20.4 16.8 14.1 67 3.6 NE 26 30 14 16 - - 0.0
10/05:30pm 20.5 16.9 14.2 67 3.7 NE 26 30 14 16 - - 0.0
10/05:00pm 20.9 17.2 13.8 64 4.1 NE 26 30 14 16 - - 0.0
10/04:30pm 21.0 17.6 13.7 63 4.2 ENE 24 28 13 15 - - 0.0
10/04:00pm 21.3 18.2 13.5 61 4.5 NE 22 28 12 15 - - 0.0
10/03:30pm 22.2 19.5 13.5 57 5.0 ENE 20 26 11 14 - - 0.0
10/03:00pm 21.4 18.5 12.8 58 4.9 ENE 20 24 11 13 - - 0.0
10/02:30pm 21.2 18.2 12.6 58 4.9 ENE 20 26 11 14 - - 0.0
10/02:00pm 23.4 21.4 13.8 54 5.6 ENE 17 19 9 10 - - 0.0
10/01:30pm 22.5 20.2 13.0 55 5.4 ENE 17 20 9 11 - - 0.0
10/01:00pm 22.3 20.2 12.5 53 5.6 ENE 15 20 8 11 - - 0.0
10/12:30pm 21.8 19.9 12.9 57 5.1 ENE 15 19 8 10 - - 0.0
10/12:00pm 20.7 18.5 12.1 58 4.8 E 15 19 8 10 - - 0.0
10/11:30am 21.2 19.2 11.5 54 5.4 E 13 17 7 9 - - 0.0
10/11:00am 20.9 19.0 13.1 61 4.4 E 15 17 8 9 - - 0.0
10/10:30am 20.9 19.2 12.3 58 4.8 ESE 13 15 7 8 - - 0.0
10/10:00am 20.7 18.8 11.9 57 4.9 ESE 13 15 7 8 - - 0.0
10/09:30am 21.1 20.3 13.0 60 4.6 SE 9 15 5 8 - - 0.0
10/09:00am 20.0 18.9 12.0 60 4.5 SE 9 13 5 7 - - 0.0
10/08:30am 19.2 18.1 12.0 63 4.0 S 9 11 5 6 - - 0.0
10/08:00am 18.3 16.9 12.3 68 3.3 SSW 11 17 6 9 - - 0.0
10/07:30am 17.9 16.8 12.1 69 3.2 SW 9 13 5 7 - - 0.0
10/07:00am 15.9 14.7 11.5 75 2.4 SW 9 11 5 6 - - 0.0
10/06:30am 15.3 13.6 11.3 77 2.1 SW 11 13 6 7 - - 0.0
10/06:00am 15.2 13.4 10.8 75 2.3 W 11 13 6 7 - - 0.0
10/05:30am 15.2 13.7 10.6 74 2.4 W 9 11 5 6 - - 0.0
10/05:00am 15.3 13.8 10.7 74 2.4 WSW 9 11 5 6 - - 0.0
10/04:30am 15.3 14.2 10.7 74 2.4 WSW 7 11 4 6 - - 0.0
10/04:00am 15.5 14.0 10.7 73 2.5 WSW 9 11 5 6 - - 0.0
10/03:30am 15.9 14.7 10.4 70 2.9 W 7 9 4 5 - - 0.0
10/03:00am 16.4 15.5 10.7 69 3.0 WNW 6 7 3 4 - - 0.0
10/02:30am 16.8 17.2 11.1 69 3.1 CALM 0 0 0 0 - - 0.0
10/02:00am 17.2 16.4 11.7 70 3.0 SSE 7 11 4 6 - - 0.0
10/01:30am 16.8 15.8 10.2 65 3.5 WSW 6 9 3 5 - - 0.0
10/01:00am 17.5 16.2 10.1 62 3.9 WSW 7 9 4 5 - - 0.0
10/12:30am 18.2 15.8 10.1 59 4.3 S 13 17 7 9 - - 0.0
10/12:00am 18.5 15.7 11.3 63 3.9 SSE 17 20 9 11 - - 0.0
 
Date/Time
EDT
Temp
°C
App
Temp
°C
Dew
Point
°C
Rel
Hum
%
Delta-T
°C
Wind Press
QNH
hPa
Press
MSL
hPa
Rain since
9am
mm
Dir  Spd
km/h
Gust
km/h
Spd
kts
Gust
kts
09/11:30pm 18.4 15.2 11.2 63 3.9 SSE 19 22 10 12 - - 0.0
09/11:00pm 18.2 15.2 10.6 61 4.1 SSE 17 20 9 11 - - 0.0
09/10:30pm 18.4 15.2 11.2 63 3.9 SSE 19 20 10 11 - - 0.0
09/10:00pm 18.5 15.2 9.6 56 4.7 SSE 17 22 9 12 - - 0.0
09/09:30pm 18.4 14.9 10.8 61 4.1 SSE 20 24 11 13 - - 0.0
09/09:00pm 18.5 14.1 11.8 65 3.7 SSE 26 30 14 16 - - 0.0
09/08:30pm 18.5 14.6 10.8 61 4.2 SSE 22 28 12 15 - - 0.0
09/08:00pm 18.8 14.8 10.4 58 4.5 SSE 22 30 12 16 - - 0.0
09/07:30pm 19.2 14.8 10.5 57 4.7 SSE 24 30 13 16 - - 0.0
09/07:00pm 19.8 15.6 9.7 52 5.4 SSE 22 30 12 16 - - 0.0
09/06:30pm 20.0 15.5 10.1 53 5.3 SSE 24 28 13 15 - - 0.0
09/06:00pm 20.0 16.4 10.4 54 5.2 SSE 20 28 11 15 - - 0.0
09/05:30pm 20.6 17.4 11.8 57 4.9 SE 20 24 11 13 - - 0.0
09/05:00pm 20.5 17.3 11.2 55 5.1 SSE 19 24 10 13 - - 0.0
09/04:30pm 20.5 16.9 11.7 57 4.9 SSE 22 26 12 14 - - 0.0
09/04:00pm 21.1 17.5 11.7 55 5.2 SE 22 26 12 14 - - 0.0
09/03:30pm 21.3 18.2 12.2 56 5.1 SE 20 24 11 13 - - 0.0
09/03:00pm 21.6 18.5 13.5 60 4.7 SE 22 26 12 14 - - 0.0
09/02:30pm 20.9 16.1 12.8 60 4.6 SE 30 33 16 18 - - 0.0
09/02:00pm 21.6 17.5 11.6 53 5.6 SSE 24 33 13 18 - - 0.0
09/01:30pm 25.1 18.3 0.6 20 11.4 SW 26 43 14 23 - - 0.0
09/01:00pm 25.2 18.8 0.7 20 11.4 SW 24 37 13 20 - - 0.0
09/12:30pm 24.9 18.1 1.1 21 11.2 W 26 44 14 24 - - 0.0
09/12:00pm 23.8 16.4 -0.5 20 11.0 W 28 43 15 23 - - 0.0
09/11:30am 23.9 17.6 3.8 27 9.8 W 26 44 14 24 - - 0.0
09/11:00am 23.0 14.8 2.5 26 9.7 WSW 35 54 19 29 - - 0.0
09/10:30am 23.0 16.4 4.0 29 9.3 W 28 46 15 25 - - 0.0
09/10:25am 23.0 16.4 4.0 29 9.3 W 28 46 15 25 - - 0.0
09/10:00am 22.2 15.2 4.3 31 8.7 W 30 46 16 25 - - 0.0
09/09:30am 21.7 15.1 4.3 32 8.5 W 28 46 15 25 - - 0.0
09/09:00am 20.8 13.9 4.8 35 7.8 W 30 52 16 28 - - 0.0
09/08:42am 20.0 12.8 4.9 37 7.3 W 32 50 17 27 - - 0.0
09/08:30am 19.9 13.2 5.5 39 7.1 W 30 46 16 25 - - 0.0
09/08:00am 18.9 11.3 5.7 42 6.5 WNW 35 59 19 32 - - 0.0
09/07:30am 18.2 10.9 5.4 43 6.2 WNW 33 54 18 29 - - 0.0
09/07:00am 17.5 10.0 6.1 47 5.6 W 35 57 19 31 - - 0.0
09/06:56am 17.6 11.4 6.2 47 5.6 W 28 50 15 27 - - 0.0
09/06:30am 17.5 12.1 6.4 48 5.5 W 24 43 13 23 - - 0.0
09/06:00am 17.0 13.0 6.8 51 5.0 WSW 17 26 9 14 - - 0.0
09/05:30am 17.3 13.3 6.5 49 5.3 WSW 17 28 9 15 - - 0.0
09/05:00am 17.3 13.4 7.1 51 5.1 SW 17 26 9 14 - - 0.0
09/04:30am 17.1 15.2 7.7 54 4.7 WSW 7 11 4 6 - - 0.0
09/04:00am 17.8 15.1 7.5 51 5.2 SW 11 19 6 10 - - 0.0
09/03:30am 18.5 13.4 7.6 49 5.5 SW 24 35 13 19 - - 0.0
09/03:00am 19.0 14.7 7.1 46 6.0 WSW 19 30 10 16 - - 0.0
09/02:30am 19.5 13.4 6.6 43 6.5 SW 28 43 15 23 - - 0.0
09/02:00am 20.1 14.0 4.6 36 7.5 SW 26 41 14 22 - - 0.0
09/01:30am 20.5 13.8 3.7 33 8.0 WSW 28 43 15 23 - - 0.0
09/01:07am 20.9 14.3 4.0 33 8.1 WSW 28 50 15 27 - - 0.0
09/01:00am 20.9 14.7 4.5 34 8.0 WSW 26 44 14 24 - - 0.0
09/12:30am 22.0 15.9 5.0 33 8.4 WSW 26 44 14 24 - - 0.0
09/12:07am 22.9 18.3 12.2 51 6.1 WNW 28 46 15 25 - - 0.0
09/12:00am 23.2 18.0 12.8 52 6.0 WNW 32 48 17 26 - - 0.0
 
Date/Time
EDT
Temp
°C
App
Temp
°C
Dew
Point
°C
Rel
Hum
%
Delta-T
°C
Wind Press
QNH
hPa
Press
MSL
hPa
Rain since
9am
mm
Dir  Spd
km/h
Gust
km/h
Spd
kts
Gust
kts
08/11:45pm 24.2 20.3 14.3 54 5.9 W 28 54 15 29 - - 0.0
08/11:30pm 24.9 21.1 14.7 53 6.1 W 28 43 15 23 - - 0.0
08/11:07pm 25.3 21.4 14.4 50 6.5 WNW 28 46 15 25 - - 0.0
08/11:00pm 25.5 21.2 14.3 50 6.7 WNW 30 46 16 25 - - 0.0
08/10:47pm 25.7 20.1 14.5 50 6.7 WNW 37 56 20 30 - - 0.0
08/10:30pm 26.1 20.3 13.9 47 7.2 WNW 37 54 20 29 - - 0.0
08/10:01pm 26.5 22.7 13.6 45 7.6 WNW 26 48 14 26 - - 0.0
08/10:00pm 26.6 22.9 14.0 46 7.5 W 26 43 14 23 - - 0.0
08/09:30pm 26.4 24.3 14.8 49 7.0 SW 19 28 10 15 - - 0.0
08/09:00pm 24.4 23.9 18.6 70 3.7 S 19 28 10 15 - - 0.0
08/08:30pm 23.3 23.8 20.8 86 1.6 SSW 19 22 10 12 - - 0.0
08/08:00pm 22.2 24.7 19.9 87 1.5 NNE 6 17 3 9 - - 0.0
08/07:30pm 22.3 22.2 20.0 87 1.5 NNE 20 32 11 17 - - 0.0
08/07:00pm 22.6 19.7 20.1 86 1.6 NE 35 41 19 22 - - 0.0
08/06:30pm 22.7 19.8 20.0 85 1.7 NE 35 41 19 22 - - 0.0
08/06:00pm 22.9 18.9 20.1 84 1.8 NE 41 46 22 25 - - 0.0
08/05:30pm 23.1 18.7 20.2 84 1.9 NE 43 50 23 27 - - 0.0
08/05:00pm 23.3 17.2 20.1 82 2.1 NE 52 61 28 33 - - 0.0
08/04:30pm 23.6 19.0 20.1 81 2.3 NE 44 54 24 29 - - 0.0
08/04:00pm 23.5 19.0 20.0 81 2.3 NE 43 50 23 27 - - 0.0
08/03:30pm 23.1 18.5 19.7 81 2.2 NE 43 52 23 28 - - 0.0
08/03:00pm 23.6 19.1 19.9 80 2.4 NE 43 54 23 29 - - 0.0
08/02:30pm 22.5 18.3 18.9 80 2.3 NE 39 50 21 27 - - 0.0
08/02:00pm 23.2 18.1 18.7 76 2.8 NE 43 56 23 30 - - 0.0
08/01:30pm 23.3 19.1 18.8 76 2.8 NE 39 48 21 26 - - 0.0
08/01:00pm 23.3 19.1 19.0 77 2.7 NE 39 48 21 26 - - 0.0
08/12:30pm 23.2 19.6 18.5 75 3.0 NE 35 43 19 23 - - 0.0
08/12:00pm 23.4 20.2 18.7 75 3.0 NE 33 43 18 23 - - 0.0
08/11:30am 23.1 19.4 18.4 75 3.0 NE 35 43 19 23 - - 0.0
08/11:00am 22.9 18.8 18.2 75 2.9 NE 37 44 20 24 - - 0.0
08/10:30am 22.7 18.9 18.0 75 2.9 NE 35 43 19 23 - - 0.0
08/10:00am 22.9 20.1 18.2 75 2.9 NE 30 33 16 18 - - 0.0
08/09:30am 23.4 21.4 18.3 73 3.2 NE 26 28 14 15 - - 0.0
08/09:00am 22.6 20.6 17.5 73 3.2 NE 24 30 13 16 - - 0.0
08/08:30am 22.5 22.1 17.2 72 3.3 NNE 15 24 8 13 - - 0.0
08/08:00am 21.8 21.0 17.2 75 2.8 NNE 17 22 9 12 - - 0.0
08/07:30am 21.0 20.1 16.8 77 2.6 NNE 17 20 9 11 - - 0.0
08/07:00am 20.4 20.5 16.6 79 2.3 NNE 11 17 6 9 - - 0.0
08/06:30am 20.1 19.0 16.3 79 2.3 NNE 17 24 9 13 - - 0.0
08/06:00am 20.0 18.4 16.4 80 2.2 NNE 20 26 11 14 - - 0.0
08/05:30am 20.2 19.2 16.6 80 2.2 NNE 17 24 9 13 - - 0.0
08/05:00am 20.3 18.7 16.5 79 2.3 N 20 26 11 14 - - 0.0
08/04:30am 20.3 18.7 16.5 79 2.3 NNE 20 24 11 13 - - 0.0
08/04:00am 20.5 18.1 16.5 78 2.4 N 24 28 13 15 - - 0.0
08/03:30am 20.5 18.1 16.3 77 2.5 N 24 30 13 16 - - 0.0
08/03:00am 20.6 18.5 16.2 76 2.6 N 22 33 12 18 - - 0.0
08/02:30am 20.6 18.9 16.2 76 2.6 N 20 30 11 16 - - 0.0
08/02:00am 21.0 18.8 16.8 77 2.6 N 24 30 13 16 - - 0.0
08/01:30am 21.0 18.8 16.8 77 2.6 N 24 32 13 17 - - 0.0
08/01:00am 21.0 19.2 17.0 78 2.4 N 22 30 12 16 - - 0.0
08/12:30am 20.8 19.0 17.0 79 2.3 NNE 22 28 12 15 - - 0.0
08/12:00am 20.8 19.0 17.0 79 2.3 NNE 22 28 12 15 - - 0.0
 
Date/Time
EDT
Temp
°C
App
Temp
°C
Dew
Point
°C
Rel
Hum
%
Delta-T
°C
Wind Press
QNH
hPa
Press
MSL
hPa
Rain since
9am
mm
Dir  Spd
km/h
Gust
km/h
Spd
kts
Gust
kts
07/11:30pm 20.8 19.5 17.2 80 2.2 NNE 20 28 11 15 - - 0.0
07/11:00pm 20.8 18.7 17.2 80 2.2 NNE 24 30 13 16 - - 0.0
07/10:30pm 20.9 19.6 17.3 80 2.2 NNE 20 28 11 15 - - 0.0
07/10:00pm 20.9 18.9 17.3 80 2.2 NNE 24 32 13 17 - - 0.0

Other Formats:

Comma delimited format used in spreadsheet applications
http://www.bom.gov.au/fwo/IDN60801/IDN60801.94749.axf

JavaScript Object Notation format (JSON) in row-major order
http://www.bom.gov.au/fwo/IDN60801/IDN60801.94749.json